Ithaca, New York
Current Conditions -  °F | °C
As of 9:56 AM on Thursday 23 Oct 2014 (Local Time) from KITH Reporting Station
Overcast Overcast  
Wind Chill: 40°   Ceiling: 1200
Heat Index: 46°   Visibility: 10mi
Dew Point: 41°   Wind: 12mph
Humidity: 83%   Direction: 350°N
Pressure: 29.98"   Gusts: 22mph
Location:  42.44°N, 76.49°W
Report Text: KITH 231356Z 35010G19KT 10SM OVC012 08/05 A2998 RMK AO2 T00770050 SLP159
Loading
Personal Weather Stations






























Interactive Weather Map
Tropical Storm Tracking
New forecast layout! Learn more

10-Day Weather Forecast

Advertisements
Track Severe Weather on mobile